sensor_id;sensor_type;location;lat;lon;timestamp;P1;durP1;ratioP1;P2;durP2;ratioP2
27818;SDS011;15192;44.854;10.046;2023-06-14T00:00:05;8.03;;;5.50;;
27818;SDS011;15192;44.854;10.046;2023-06-14T00:02:34;9.20;;;5.95;;
27818;SDS011;15192;44.854;10.046;2023-06-14T00:05:03;8.58;;;5.70;;
27818;SDS011;15192;44.854;10.046;2023-06-14T00:07:33;12.65;;;5.72;;
27818;SDS011;15192;44.854;10.046;2023-06-14T00:10:03;9.78;;;6.17;;
27818;SDS011;15192;44.854;10.046;2023-06-14T00:12:32;9.55;;;5.80;;
27818;SDS011;15192;44.854;10.046;2023-06-14T00:15:02;7.95;;;5.50;;
27818;SDS011;15192;44.854;10.046;2023-06-14T00:17:31;6.92;;;5.90;;
27818;SDS011;15192;44.854;10.046;2023-06-14T00:20:01;8.03;;;5.62;;
27818;SDS011;15192;44.854;10.046;2023-06-14T00:22:33;7.67;;;5.70;;
27818;SDS011;15192;44.854;10.046;2023-06-14T00:25:04;6.50;;;5.80;;
27818;SDS011;15192;44.854;10.046;2023-06-14T00:27:33;9.40;;;5.78;;
27818;SDS011;15192;44.854;10.046;2023-06-14T00:30:02;11.40;;;6.47;;
27818;SDS011;15192;44.854;10.046;2023-06-14T00:32:33;11.67;;;6.30;;
27818;SDS011;15192;44.854;10.046;2023-06-14T00:35:02;10.40;;;7.37;;
27818;SDS011;15192;44.854;10.046;2023-06-14T00:37:31;17.87;;;8.25;;
27818;SDS011;15192;44.854;10.046;2023-06-14T00:40:02;12.55;;;8.73;;
27818;SDS011;15192;44.854;10.046;2023-06-14T00:42:31;14.98;;;9.23;;
27818;SDS011;15192;44.854;10.046;2023-06-14T00:45:00;10.50;;;8.08;;
27818;SDS011;15192;44.854;10.046;2023-06-14T00:47:29;10.45;;;8.18;;
27818;SDS011;15192;44.854;10.046;2023-06-14T00:49:58;16.15;;;10.15;;
27818;SDS011;15192;44.854;10.046;2023-06-14T00:52:29;14.73;;;10.88;;
27818;SDS011;15192;44.854;10.046;2023-06-14T00:54:59;12.80;;;8.55;;
27818;SDS011;15192;44.854;10.046;2023-06-14T00:57:29;13.68;;;8.28;;
27818;SDS011;15192;44.854;10.046;2023-06-14T00:59:58;12.45;;;8.03;;
27818;SDS011;15192;44.854;10.046;2023-06-14T01:02:27;13.20;;;8.98;;
27818;SDS011;15192;44.854;10.046;2023-06-14T01:04:57;14.00;;;8.03;;
27818;SDS011;15192;44.854;10.046;2023-06-14T01:13:27;19.32;;;8.50;;
27818;SDS011;15192;44.854;10.046;2023-06-14T01:15:55;20.15;;;9.00;;
27818;SDS011;15192;44.854;10.046;2023-06-14T01:18:25;11.08;;;7.70;;
27818;SDS011;15192;44.854;10.046;2023-06-14T01:20:56;16.93;;;7.50;;
27818;SDS011;15192;44.854;10.046;2023-06-14T01:23:25;12.35;;;7.95;;
27818;SDS011;15192;44.854;10.046;2023-06-14T01:25:56;15.28;;;9.43;;
27818;SDS011;15192;44.854;10.046;2023-06-14T01:28:24;17.70;;;9.83;;
27818;SDS011;15192;44.854;10.046;2023-06-14T01:30:56;11.40;;;8.43;;
27818;SDS011;15192;44.854;10.046;2023-06-14T01:33:27;12.85;;;8.65;;
27818;SDS011;15192;44.854;10.046;2023-06-14T01:35:58;10.65;;;7.95;;
27818;SDS011;15192;44.854;10.046;2023-06-14T01:38:30;11.65;;;7.92;;
27818;SDS011;15192;44.854;10.046;2023-06-14T01:40:59;10.40;;;7.75;;
27818;SDS011;15192;44.854;10.046;2023-06-14T01:43:32;9.55;;;6.75;;
27818;SDS011;15192;44.854;10.046;2023-06-14T01:46:04;11.10;;;7.85;;
27818;SDS011;15192;44.854;10.046;2023-06-14T01:48:34;14.40;;;8.53;;
27818;SDS011;15192;44.854;10.046;2023-06-14T01:51:04;10.15;;;7.62;;
27818;SDS011;15192;44.854;10.046;2023-06-14T01:53:32;9.75;;;8.05;;
27818;SDS011;15192;44.854;10.046;2023-06-14T01:56:02;13.83;;;8.60;;
27818;SDS011;15192;44.854;10.046;2023-06-14T01:58:31;11.10;;;7.55;;
27818;SDS011;15192;44.854;10.046;2023-06-14T02:01:01;12.90;;;8.00;;
27818;SDS011;15192;44.854;10.046;2023-06-14T02:03:30;13.40;;;8.58;;
27818;SDS011;15192;44.854;10.046;2023-06-14T02:05:59;14.03;;;8.10;;
27818;SDS011;15192;44.854;10.046;2023-06-14T02:08:28;11.33;;;8.33;;
27818;SDS011;15192;44.854;10.046;2023-06-14T02:10:59;11.50;;;8.10;;
27818;SDS011;15192;44.854;10.046;2023-06-14T02:13:28;10.03;;;8.38;;
27818;SDS011;15192;44.854;10.046;2023-06-14T02:15:57;11.20;;;9.28;;
27818;SDS011;15192;44.854;10.046;2023-06-14T02:18:28;11.67;;;8.97;;
27818;SDS011;15192;44.854;10.046;2023-06-14T02:20:58;32.25;;;10.35;;
27818;SDS011;15192;44.854;10.046;2023-06-14T02:23:27;15.05;;;10.15;;
27818;SDS011;15192;44.854;10.046;2023-06-14T02:25:57;15.68;;;10.40;;
27818;SDS011;15192;44.854;10.046;2023-06-14T02:28:27;13.68;;;9.55;;
27818;SDS011;15192;44.854;10.046;2023-06-14T02:30:55;12.10;;;10.00;;
27818;SDS011;15192;44.854;10.046;2023-06-14T02:33:24;13.43;;;9.10;;
27818;SDS011;15192;44.854;10.046;2023-06-14T02:35:53;10.53;;;7.90;;
27818;SDS011;15192;44.854;10.046;2023-06-14T02:38:23;11.40;;;8.63;;
27818;SDS011;15192;44.854;10.046;2023-06-14T02:40:52;11.10;;;8.73;;
27818;SDS011;15192;44.854;10.046;2023-06-14T02:43:21;10.03;;;8.20;;
27818;SDS011;15192;44.854;10.046;2023-06-14T02:45:50;10.58;;;7.72;;
27818;SDS011;15192;44.854;10.046;2023-06-14T02:48:20;14.75;;;8.70;;
27818;SDS011;15192;44.854;10.046;2023-06-14T02:50:49;12.23;;;8.40;;
27818;SDS011;15192;44.854;10.046;2023-06-14T02:53:18;13.80;;;7.97;;
27818;SDS011;15192;44.854;10.046;2023-06-14T02:55:47;10.88;;;7.62;;
27818;SDS011;15192;44.854;10.046;2023-06-14T02:58:17;15.05;;;8.28;;
27818;SDS011;15192;44.854;10.046;2023-06-14T03:00:46;15.20;;;8.20;;
27818;SDS011;15192;44.854;10.046;2023-06-14T03:03:15;13.05;;;8.05;;
27818;SDS011;15192;44.854;10.046;2023-06-14T03:05:47;17.42;;;8.98;;
27818;SDS011;15192;44.854;10.046;2023-06-14T03:08:19;12.65;;;9.05;;
27818;SDS011;15192;44.854;10.046;2023-06-14T03:10:51;13.90;;;8.48;;
27818;SDS011;15192;44.854;10.046;2023-06-14T03:13:20;11.88;;;8.50;;
27818;SDS011;15192;44.854;10.046;2023-06-14T03:15:50;13.58;;;8.60;;
27818;SDS011;15192;44.854;10.046;2023-06-14T03:18:19;16.10;;;8.88;;
27818;SDS011;15192;44.854;10.046;2023-06-14T03:20:51;12.35;;;8.10;;
27818;SDS011;15192;44.854;10.046;2023-06-14T03:23:21;11.57;;;8.40;;
27818;SDS011;15192;44.854;10.046;2023-06-14T03:25:50;13.43;;;8.05;;
27818;SDS011;15192;44.854;10.046;2023-06-14T03:28:19;12.58;;;7.80;;
27818;SDS011;15192;44.854;10.046;2023-06-14T03:30:48;10.68;;;8.55;;
27818;SDS011;15192;44.854;10.046;2023-06-14T03:33:17;12.93;;;8.25;;
27818;SDS011;15192;44.854;10.046;2023-06-14T03:35:46;17.27;;;8.53;;
27818;SDS011;15192;44.854;10.046;2023-06-14T03:38:15;11.73;;;8.60;;
27818;SDS011;15192;44.854;10.046;2023-06-14T03:40:44;11.12;;;8.20;;
27818;SDS011;15192;44.854;10.046;2023-06-14T03:43:13;14.00;;;8.78;;
27818;SDS011;15192;44.854;10.046;2023-06-14T03:45:42;11.53;;;8.55;;
27818;SDS011;15192;44.854;10.046;2023-06-14T03:48:11;11.30;;;8.08;;
27818;SDS011;15192;44.854;10.046;2023-06-14T03:50:40;15.60;;;8.75;;
27818;SDS011;15192;44.854;10.046;2023-06-14T03:53:10;11.38;;;8.00;;
27818;SDS011;15192;44.854;10.046;2023-06-14T03:55:41;12.82;;;8.63;;
27818;SDS011;15192;44.854;10.046;2023-06-14T03:58:10;15.00;;;8.20;;
27818;SDS011;15192;44.854;10.046;2023-06-14T04:00:40;10.32;;;8.25;;
27818;SDS011;15192;44.854;10.046;2023-06-14T04:03:10;13.80;;;8.40;;
27818;SDS011;15192;44.854;10.046;2023-06-14T04:05:41;14.70;;;8.38;;
27818;SDS011;15192;44.854;10.046;2023-06-14T04:08:11;12.43;;;8.28;;
27818;SDS011;15192;44.854;10.046;2023-06-14T04:10:41;14.33;;;8.63;;
27818;SDS011;15192;44.854;10.046;2023-06-14T04:13:10;16.48;;;7.78;;
27818;SDS011;15192;44.854;10.046;2023-06-14T04:15:40;9.75;;;7.55;;
27818;SDS011;15192;44.854;10.046;2023-06-14T04:18:14;13.18;;;7.03;;
27818;SDS011;15192;44.854;10.046;2023-06-14T04:20:43;12.88;;;7.17;;
27818;SDS011;15192;44.854;10.046;2023-06-14T04:23:13;11.65;;;7.30;;
27818;SDS011;15192;44.854;10.046;2023-06-14T04:25:45;11.85;;;6.42;;
27818;SDS011;15192;44.854;10.046;2023-06-14T04:28:14;10.60;;;6.45;;
27818;SDS011;15192;44.854;10.046;2023-06-14T04:30:45;8.63;;;5.90;;
27818;SDS011;15192;44.854;10.046;2023-06-14T04:33:17;12.07;;;6.28;;
27818;SDS011;15192;44.854;10.046;2023-06-14T04:35:46;8.95;;;6.20;;
27818;SDS011;15192;44.854;10.046;2023-06-14T04:38:17;12.85;;;5.55;;
27818;SDS011;15192;44.854;10.046;2023-06-14T04:40:48;9.20;;;5.72;;
27818;SDS011;15192;44.854;10.046;2023-06-14T04:43:19;7.67;;;5.42;;
27818;SDS011;15192;44.854;10.046;2023-06-14T04:45:50;9.05;;;5.17;;
27818;SDS011;15192;44.854;10.046;2023-06-14T04:48:19;13.60;;;5.33;;
27818;SDS011;15192;44.854;10.046;2023-06-14T04:50:49;8.13;;;4.90;;
27818;SDS011;15192;44.854;10.046;2023-06-14T04:53:20;6.12;;;4.72;;
27818;SDS011;15192;44.854;10.046;2023-06-14T04:55:51;5.62;;;4.45;;
27818;SDS011;15192;44.854;10.046;2023-06-14T04:58:21;6.33;;;4.20;;
27818;SDS011;15192;44.854;10.046;2023-06-14T05:00:50;8.48;;;4.67;;
27818;SDS011;15192;44.854;10.046;2023-06-14T05:03:20;10.38;;;5.42;;
27818;SDS011;15192;44.854;10.046;2023-06-14T05:05:49;7.33;;;6.00;;
27818;SDS011;15192;44.854;10.046;2023-06-14T05:08:20;11.57;;;5.83;;
27818;SDS011;15192;44.854;10.046;2023-06-14T05:10:53;13.25;;;7.67;;
27818;SDS011;15192;44.854;10.046;2023-06-14T05:13:22;13.75;;;9.48;;
27818;SDS011;15192;44.854;10.046;2023-06-14T05:15:54;13.48;;;10.65;;
27818;SDS011;15192;44.854;10.046;2023-06-14T05:18:22;14.03;;;9.18;;
27818;SDS011;15192;44.854;10.046;2023-06-14T05:20:52;13.53;;;8.65;;
27818;SDS011;15192;44.854;10.046;2023-06-14T05:23:21;12.30;;;8.75;;
27818;SDS011;15192;44.854;10.046;2023-06-14T05:25:49;17.98;;;8.63;;
27818;SDS011;15192;44.854;10.046;2023-06-14T05:28:18;11.12;;;8.50;;
27818;SDS011;15192;44.854;10.046;2023-06-14T05:30:47;14.98;;;8.80;;
27818;SDS011;15192;44.854;10.046;2023-06-14T05:33:17;15.65;;;10.45;;
27818;SDS011;15192;44.854;10.046;2023-06-14T05:35:46;13.78;;;9.78;;
27818;SDS011;15192;44.854;10.046;2023-06-14T05:38:14;16.35;;;10.18;;
27818;SDS011;15192;44.854;10.046;2023-06-14T05:40:43;16.35;;;11.30;;
27818;SDS011;15192;44.854;10.046;2023-06-14T05:43:12;19.60;;;13.18;;
27818;SDS011;15192;44.854;10.046;2023-06-14T05:45:41;18.73;;;11.30;;
27818;SDS011;15192;44.854;10.046;2023-06-14T05:48:10;14.07;;;10.20;;
27818;SDS011;15192;44.854;10.046;2023-06-14T05:50:39;14.30;;;10.32;;
27818;SDS011;15192;44.854;10.046;2023-06-14T05:53:08;11.97;;;9.05;;
27818;SDS011;15192;44.854;10.046;2023-06-14T05:55:37;13.70;;;9.83;;
27818;SDS011;15192;44.854;10.046;2023-06-14T05:58:05;21.17;;;12.03;;
27818;SDS011;15192;44.854;10.046;2023-06-14T06:00:34;17.98;;;12.73;;
27818;SDS011;15192;44.854;10.046;2023-06-14T06:03:03;17.35;;;13.53;;
27818;SDS011;15192;44.854;10.046;2023-06-14T06:05:34;23.57;;;15.55;;
27818;SDS011;15192;44.854;10.046;2023-06-14T06:08:03;21.17;;;15.35;;
27818;SDS011;15192;44.854;10.046;2023-06-14T06:10:32;21.30;;;14.90;;
27818;SDS011;15192;44.854;10.046;2023-06-14T06:13:01;18.23;;;13.48;;
27818;SDS011;15192;44.854;10.046;2023-06-14T06:15:30;21.20;;;13.98;;
27818;SDS011;15192;44.854;10.046;2023-06-14T06:18:01;24.65;;;15.13;;
27818;SDS011;15192;44.854;10.046;2023-06-14T06:20:30;24.55;;;15.55;;
27818;SDS011;15192;44.854;10.046;2023-06-14T06:22:59;27.62;;;16.40;;
27818;SDS011;15192;44.854;10.046;2023-06-14T06:25:28;20.95;;;15.45;;
27818;SDS011;15192;44.854;10.046;2023-06-14T06:27:58;24.70;;;15.72;;
27818;SDS011;15192;44.854;10.046;2023-06-14T06:30:28;25.08;;;16.57;;
27818;SDS011;15192;44.854;10.046;2023-06-14T06:32:57;22.48;;;15.98;;
27818;SDS011;15192;44.854;10.046;2023-06-14T06:35:26;22.20;;;15.08;;
27818;SDS011;15192;44.854;10.046;2023-06-14T06:37:56;23.83;;;15.18;;
27818;SDS011;15192;44.854;10.046;2023-06-14T06:40:24;28.38;;;17.02;;
27818;SDS011;15192;44.854;10.046;2023-06-14T06:42:53;29.48;;;20.52;;
27818;SDS011;15192;44.854;10.046;2023-06-14T06:45:24;31.35;;;20.37;;
27818;SDS011;15192;44.854;10.046;2023-06-14T06:47:53;29.02;;;20.15;;
27818;SDS011;15192;44.854;10.046;2023-06-14T06:50:22;34.20;;;20.25;;
27818;SDS011;15192;44.854;10.046;2023-06-14T06:52:52;34.53;;;20.75;;
27818;SDS011;15192;44.854;10.046;2023-06-14T06:55:20;30.72;;;21.15;;
27818;SDS011;15192;44.854;10.046;2023-06-14T06:57:50;34.83;;;22.20;;
27818;SDS011;15192;44.854;10.046;2023-06-14T07:00:20;32.35;;;21.62;;
27818;SDS011;15192;44.854;10.046;2023-06-14T07:02:50;31.33;;;19.62;;
27818;SDS011;15192;44.854;10.046;2023-06-14T07:05:19;30.23;;;21.30;;
27818;SDS011;15192;44.854;10.046;2023-06-14T07:07:48;31.77;;;21.48;;
27818;SDS011;15192;44.854;10.046;2023-06-14T07:10:17;26.70;;;18.40;;
27818;SDS011;15192;44.854;10.046;2023-06-14T07:12:46;32.17;;;18.77;;
27818;SDS011;15192;44.854;10.046;2023-06-14T07:15:15;24.90;;;16.82;;
27818;SDS011;15192;44.854;10.046;2023-06-14T07:17:44;22.48;;;15.32;;
27818;SDS011;15192;44.854;10.046;2023-06-14T07:20:13;25.57;;;17.25;;
27818;SDS011;15192;44.854;10.046;2023-06-14T07:22:43;26.00;;;16.90;;
27818;SDS011;15192;44.854;10.046;2023-06-14T07:25:12;25.92;;;17.07;;
27818;SDS011;15192;44.854;10.046;2023-06-14T07:27:42;24.92;;;16.85;;
27818;SDS011;15192;44.854;10.046;2023-06-14T07:30:11;21.70;;;13.72;;
27818;SDS011;15192;44.854;10.046;2023-06-14T07:32:41;20.97;;;14.20;;
27818;SDS011;15192;44.854;10.046;2023-06-14T07:35:10;22.35;;;14.00;;
27818;SDS011;15192;44.854;10.046;2023-06-14T07:37:38;18.27;;;13.35;;
27818;SDS011;15192;44.854;10.046;2023-06-14T07:40:08;20.68;;;13.83;;
27818;SDS011;15192;44.854;10.046;2023-06-14T07:42:37;19.27;;;14.68;;
27818;SDS011;15192;44.854;10.046;2023-06-14T07:45:06;17.30;;;14.00;;
27818;SDS011;15192;44.854;10.046;2023-06-14T07:47:38;26.02;;;14.55;;
27818;SDS011;15192;44.854;10.046;2023-06-14T07:50:07;20.55;;;14.45;;
27818;SDS011;15192;44.854;10.046;2023-06-14T07:52:37;18.95;;;12.65;;
27818;SDS011;15192;44.854;10.046;2023-06-14T07:55:06;19.37;;;13.80;;
27818;SDS011;15192;44.854;10.046;2023-06-14T07:57:36;13.62;;;11.28;;
27818;SDS011;15192;44.854;10.046;2023-06-14T08:00:05;19.75;;;11.88;;
27818;SDS011;15192;44.854;10.046;2023-06-14T08:02:41;14.75;;;9.85;;
27818;SDS011;15192;44.854;10.046;2023-06-14T08:05:11;17.35;;;13.08;;
27818;SDS011;15192;44.854;10.046;2023-06-14T08:07:40;24.60;;;13.08;;
27818;SDS011;15192;44.854;10.046;2023-06-14T08:10:09;20.48;;;12.63;;
27818;SDS011;15192;44.854;10.046;2023-06-14T08:12:38;19.52;;;11.73;;
27818;SDS011;15192;44.854;10.046;2023-06-14T08:15:07;19.70;;;13.32;;
27818;SDS011;15192;44.854;10.046;2023-06-14T08:17:37;21.70;;;13.48;;
27818;SDS011;15192;44.854;10.046;2023-06-14T08:20:06;17.98;;;13.72;;
27818;SDS011;15192;44.854;10.046;2023-06-14T08:22:35;21.93;;;16.10;;
27818;SDS011;15192;44.854;10.046;2023-06-14T08:25:05;22.00;;;15.20;;
27818;SDS011;15192;44.854;10.046;2023-06-14T08:27:34;23.90;;;15.30;;
27818;SDS011;15192;44.854;10.046;2023-06-14T08:30:03;23.32;;;14.80;;
27818;SDS011;15192;44.854;10.046;2023-06-14T08:32:34;21.87;;;16.37;;
27818;SDS011;15192;44.854;10.046;2023-06-14T08:35:03;27.17;;;17.85;;
27818;SDS011;15192;44.854;10.046;2023-06-14T08:37:37;24.60;;;15.33;;
27818;SDS011;15192;44.854;10.046;2023-06-14T08:40:18;20.40;;;13.62;;
27818;SDS011;15192;44.854;10.046;2023-06-14T08:42:50;20.65;;;15.50;;
27818;SDS011;15192;44.854;10.046;2023-06-14T08:45:20;25.27;;;17.50;;
27818;SDS011;15192;44.854;10.046;2023-06-14T08:47:52;22.77;;;16.90;;
27818;SDS011;15192;44.854;10.046;2023-06-14T08:50:26;21.80;;;15.40;;
27818;SDS011;15192;44.854;10.046;2023-06-14T08:52:58;23.00;;;16.62;;
27818;SDS011;15192;44.854;10.046;2023-06-14T08:55:30;22.48;;;16.05;;
27818;SDS011;15192;44.854;10.046;2023-06-14T08:58:01;27.02;;;19.48;;
27818;SDS011;15192;44.854;10.046;2023-06-14T09:00:30;24.95;;;18.35;;
27818;SDS011;15192;44.854;10.046;2023-06-14T09:03:00;26.90;;;20.62;;
27818;SDS011;15192;44.854;10.046;2023-06-14T09:05:30;32.25;;;21.97;;
27818;SDS011;15192;44.854;10.046;2023-06-14T09:07:59;26.73;;;20.50;;
27818;SDS011;15192;44.854;10.046;2023-06-14T09:10:28;32.38;;;23.30;;
27818;SDS011;15192;44.854;10.046;2023-06-14T09:13:01;29.00;;;21.87;;
27818;SDS011;15192;44.854;10.046;2023-06-14T09:15:30;31.55;;;22.95;;
27818;SDS011;15192;44.854;10.046;2023-06-14T09:18:05;33.13;;;22.75;;
27818;SDS011;15192;44.854;10.046;2023-06-14T09:20:30;39.13;;;22.22;;
27818;SDS011;15192;44.854;10.046;2023-06-14T09:23:00;33.30;;;23.50;;
27818;SDS011;15192;44.854;10.046;2023-06-14T09:25:32;35.85;;;24.92;;
27818;SDS011;15192;44.854;10.046;2023-06-14T09:28:03;36.58;;;23.18;;
27818;SDS011;15192;44.854;10.046;2023-06-14T09:30:36;33.15;;;22.07;;
27818;SDS011;15192;44.854;10.046;2023-06-14T09:33:05;32.35;;;22.55;;
27818;SDS011;15192;44.854;10.046;2023-06-14T09:35:35;32.03;;;24.75;;
27818;SDS011;15192;44.854;10.046;2023-06-14T09:38:04;36.30;;;26.12;;
27818;SDS011;15192;44.854;10.046;2023-06-14T09:40:34;30.92;;;16.05;;
27818;SDS011;15192;44.854;10.046;2023-06-14T09:43:07;21.05;;;13.98;;
27818;SDS011;15192;44.854;10.046;2023-06-14T09:45:37;21.62;;;11.48;;
27818;SDS011;15192;44.854;10.046;2023-06-14T09:48:10;13.13;;;9.38;;
27818;SDS011;15192;44.854;10.046;2023-06-14T09:50:41;13.70;;;9.20;;
27818;SDS011;15192;44.854;10.046;2023-06-14T09:53:10;14.95;;;8.18;;
27818;SDS011;15192;44.854;10.046;2023-06-14T09:55:40;13.13;;;8.28;;
27818;SDS011;15192;44.854;10.046;2023-06-14T09:58:10;24.10;;;9.63;;
27818;SDS011;15192;44.854;10.046;2023-06-14T10:00:39;14.55;;;10.80;;
27818;SDS011;15192;44.854;10.046;2023-06-14T10:03:14;15.80;;;10.53;;
27818;SDS011;15192;44.854;10.046;2023-06-14T10:05:48;17.25;;;12.00;;
27818;SDS011;15192;44.854;10.046;2023-06-14T10:08:19;15.70;;;11.10;;
27818;SDS011;15192;44.854;10.046;2023-06-14T10:10:53;16.77;;;12.33;;
27818;SDS011;15192;44.854;10.046;2023-06-14T10:13:23;14.30;;;12.07;;
27818;SDS011;15192;44.854;10.046;2023-06-14T10:24:01;27.42;;;18.57;;
27818;SDS011;15192;44.854;10.046;2023-06-14T10:26:32;26.70;;;21.07;;
27818;SDS011;15192;44.854;10.046;2023-06-14T10:29:14;33.23;;;22.73;;
27818;SDS011;15192;44.854;10.046;2023-06-14T10:34:21;32.78;;;22.02;;
27818;SDS011;15192;44.854;10.046;2023-06-14T10:37:04;27.02;;;22.25;;
27818;SDS011;15192;44.854;10.046;2023-06-14T10:39:37;30.97;;;23.70;;
27818;SDS011;15192;44.854;10.046;2023-06-14T10:42:08;26.40;;;20.50;;
27818;SDS011;15192;44.854;10.046;2023-06-14T10:50:05;28.80;;;21.30;;
27818;SDS011;15192;44.854;10.046;2023-06-14T10:52:39;26.30;;;20.62;;
27818;SDS011;15192;44.854;10.046;2023-06-14T10:55:15;29.80;;;21.00;;
27818;SDS011;15192;44.854;10.046;2023-06-14T10:57:46;27.07;;;21.02;;
27818;SDS011;15192;44.854;10.046;2023-06-14T11:00:23;25.50;;;19.82;;
27818;SDS011;15192;44.854;10.046;2023-06-14T11:03:04;28.10;;;20.57;;
27818;SDS011;15192;44.854;10.046;2023-06-14T11:05:49;26.75;;;21.50;;
27818;SDS011;15192;44.854;10.046;2023-06-14T11:11:13;22.40;;;18.65;;
27818;SDS011;15192;44.854;10.046;2023-06-14T11:13:44;23.62;;;19.82;;
27818;SDS011;15192;44.854;10.046;2023-06-14T11:16:14;24.72;;;20.17;;
27818;SDS011;15192;44.854;10.046;2023-06-14T11:18:44;23.38;;;17.85;;
27818;SDS011;15192;44.854;10.046;2023-06-14T11:21:16;21.33;;;17.85;;
27818;SDS011;15192;44.854;10.046;2023-06-14T11:23:49;23.60;;;17.57;;
27818;SDS011;15192;44.854;10.046;2023-06-14T11:26:25;26.02;;;18.42;;
27818;SDS011;15192;44.854;10.046;2023-06-14T11:28:56;24.43;;;19.70;;
27818;SDS011;15192;44.854;10.046;2023-06-14T11:31:26;20.55;;;17.25;;
27818;SDS011;15192;44.854;10.046;2023-06-14T11:33:56;24.52;;;17.65;;
27818;SDS011;15192;44.854;10.046;2023-06-14T11:36:26;24.27;;;18.50;;
27818;SDS011;15192;44.854;10.046;2023-06-14T11:39:05;25.52;;;18.48;;
27818;SDS011;15192;44.854;10.046;2023-06-14T11:41:39;22.35;;;18.55;;
27818;SDS011;15192;44.854;10.046;2023-06-14T11:44:11;20.97;;;17.98;;
27818;SDS011;15192;44.854;10.046;2023-06-14T11:46:40;29.05;;;18.65;;
27818;SDS011;15192;44.854;10.046;2023-06-14T11:49:09;26.70;;;18.07;;
27818;SDS011;15192;44.854;10.046;2023-06-14T11:51:38;20.05;;;17.62;;
27818;SDS011;15192;44.854;10.046;2023-06-14T11:54:07;21.17;;;17.35;;
27818;SDS011;15192;44.854;10.046;2023-06-14T11:56:36;18.57;;;15.75;;
27818;SDS011;15192;44.854;10.046;2023-06-14T11:59:05;22.15;;;17.57;;
27818;SDS011;15192;44.854;10.046;2023-06-14T12:01:37;18.57;;;15.10;;
27818;SDS011;15192;44.854;10.046;2023-06-14T12:04:06;16.95;;;14.43;;
27818;SDS011;15192;44.854;10.046;2023-06-14T12:06:35;17.05;;;14.10;;
27818;SDS011;15192;44.854;10.046;2023-06-14T12:09:06;17.95;;;14.83;;
27818;SDS011;15192;44.854;10.046;2023-06-14T12:11:37;17.48;;;14.68;;
27818;SDS011;15192;44.854;10.046;2023-06-14T12:14:08;25.20;;;17.65;;
27818;SDS011;15192;44.854;10.046;2023-06-14T12:16:38;21.37;;;16.67;;
27818;SDS011;15192;44.854;10.046;2023-06-14T12:19:09;19.07;;;15.98;;
27818;SDS011;15192;44.854;10.046;2023-06-14T12:21:42;19.82;;;15.83;;
27818;SDS011;15192;44.854;10.046;2023-06-14T12:24:14;17.62;;;13.68;;
27818;SDS011;15192;44.854;10.046;2023-06-14T12:26:43;15.58;;;13.80;;
27818;SDS011;15192;44.854;10.046;2023-06-14T12:29:12;17.57;;;13.00;;
27818;SDS011;15192;44.854;10.046;2023-06-14T12:31:41;20.20;;;14.38;;
27818;SDS011;15192;44.854;10.046;2023-06-14T12:34:10;14.40;;;12.60;;
27818;SDS011;15192;44.854;10.046;2023-06-14T12:36:39;19.95;;;14.40;;
27818;SDS011;15192;44.854;10.046;2023-06-14T12:39:09;15.95;;;12.53;;
27818;SDS011;15192;44.854;10.046;2023-06-14T12:41:38;15.83;;;12.50;;
27818;SDS011;15192;44.854;10.046;2023-06-14T12:44:10;16.20;;;12.95;;
27818;SDS011;15192;44.854;10.046;2023-06-14T12:46:39;16.82;;;11.90;;
27818;SDS011;15192;44.854;10.046;2023-06-14T12:49:10;17.00;;;12.00;;
27818;SDS011;15192;44.854;10.046;2023-06-14T12:51:39;16.35;;;11.45;;
27818;SDS011;15192;44.854;10.046;2023-06-14T12:54:08;14.47;;;11.90;;
27818;SDS011;15192;44.854;10.046;2023-06-14T12:56:37;12.53;;;11.22;;
27818;SDS011;15192;44.854;10.046;2023-06-14T12:59:08;21.33;;;10.50;;
27818;SDS011;15192;44.854;10.046;2023-06-14T13:01:38;13.38;;;10.53;;
27818;SDS011;15192;44.854;10.046;2023-06-14T13:04:07;11.63;;;9.03;;
27818;SDS011;15192;44.854;10.046;2023-06-14T13:06:37;10.95;;;9.70;;
27818;SDS011;15192;44.854;10.046;2023-06-14T13:09:06;15.60;;;9.13;;
27818;SDS011;15192;44.854;10.046;2023-06-14T13:11:36;12.10;;;9.48;;
27818;SDS011;15192;44.854;10.046;2023-06-14T13:14:05;14.70;;;9.00;;
27818;SDS011;15192;44.854;10.046;2023-06-14T13:16:33;15.20;;;9.48;;
27818;SDS011;15192;44.854;10.046;2023-06-14T13:19:02;13.75;;;10.85;;
27818;SDS011;15192;44.854;10.046;2023-06-14T13:21:31;12.13;;;9.15;;
27818;SDS011;15192;44.854;10.046;2023-06-14T13:24:00;14.85;;;9.85;;
27818;SDS011;15192;44.854;10.046;2023-06-14T13:26:29;12.68;;;9.30;;
27818;SDS011;15192;44.854;10.046;2023-06-14T13:28:58;11.85;;;9.40;;
27818;SDS011;15192;44.854;10.046;2023-06-14T13:31:27;14.68;;;10.05;;
27818;SDS011;15192;44.854;10.046;2023-06-14T13:33:57;15.75;;;9.90;;
27818;SDS011;15192;44.854;10.046;2023-06-14T13:36:25;11.75;;;8.23;;
27818;SDS011;15192;44.854;10.046;2023-06-14T13:38:54;10.98;;;9.33;;
27818;SDS011;15192;44.854;10.046;2023-06-14T13:41:25;16.93;;;9.40;;
27818;SDS011;15192;44.854;10.046;2023-06-14T13:44:00;16.62;;;10.18;;
27818;SDS011;15192;44.854;10.046;2023-06-14T13:46:31;11.30;;;9.50;;
27818;SDS011;15192;44.854;10.046;2023-06-14T13:49:00;13.32;;;9.55;;
27818;SDS011;15192;44.854;10.046;2023-06-14T13:51:29;13.20;;;10.15;;
27818;SDS011;15192;44.854;10.046;2023-06-14T13:53:58;13.68;;;9.58;;
27818;SDS011;15192;44.854;10.046;2023-06-14T13:56:26;14.10;;;10.38;;
27818;SDS011;15192;44.854;10.046;2023-06-14T13:58:55;13.22;;;10.15;;
27818;SDS011;15192;44.854;10.046;2023-06-14T14:01:24;14.30;;;11.43;;
27818;SDS011;15192;44.854;10.046;2023-06-14T14:03:55;13.45;;;11.57;;
27818;SDS011;15192;44.854;10.046;2023-06-14T14:06:26;11.85;;;10.43;;
27818;SDS011;15192;44.854;10.046;2023-06-14T14:08:54;16.32;;;11.65;;
27818;SDS011;15192;44.854;10.046;2023-06-14T14:11:23;12.55;;;10.48;;
27818;SDS011;15192;44.854;10.046;2023-06-14T14:13:52;11.50;;;9.20;;
27818;SDS011;15192;44.854;10.046;2023-06-14T14:16:22;13.65;;;9.55;;
27818;SDS011;15192;44.854;10.046;2023-06-14T14:18:50;14.70;;;11.15;;
27818;SDS011;15192;44.854;10.046;2023-06-14T14:21:19;16.15;;;11.12;;
27818;SDS011;15192;44.854;10.046;2023-06-14T14:23:48;17.30;;;11.48;;
27818;SDS011;15192;44.854;10.046;2023-06-14T14:26:17;14.45;;;11.73;;
27818;SDS011;15192;44.854;10.046;2023-06-14T14:28:47;13.35;;;10.68;;
27818;SDS011;15192;44.854;10.046;2023-06-14T14:31:16;15.88;;;12.15;;
27818;SDS011;15192;44.854;10.046;2023-06-14T14:33:45;13.03;;;10.50;;
27818;SDS011;15192;44.854;10.046;2023-06-14T14:36:14;13.43;;;10.90;;
27818;SDS011;15192;44.854;10.046;2023-06-14T14:38:43;16.75;;;10.90;;
27818;SDS011;15192;44.854;10.046;2023-06-14T14:41:12;10.88;;;9.48;;
27818;SDS011;15192;44.854;10.046;2023-06-14T14:43:41;22.32;;;12.58;;
27818;SDS011;15192;44.854;10.046;2023-06-14T14:46:10;16.85;;;14.63;;
27818;SDS011;15192;44.854;10.046;2023-06-14T14:48:39;15.53;;;12.18;;
27818;SDS011;15192;44.854;10.046;2023-06-14T14:51:08;15.45;;;12.68;;
27818;SDS011;15192;44.854;10.046;2023-06-14T14:53:37;15.28;;;12.95;;
27818;SDS011;15192;44.854;10.046;2023-06-14T14:56:06;16.42;;;12.20;;